createdAt,value
2018-02-27T00:00:31.453Z,97.19
2018-02-27T00:02:24.442Z,96.91
2018-02-27T00:03:24.474Z,96.91
2018-02-27T00:05:17.461Z,97.19
2018-02-27T00:06:17.490Z,97.10
2018-02-27T00:08:10.462Z,96.81
2018-02-27T00:09:10.505Z,97.38
2018-02-27T00:11:03.488Z,97.00
2018-02-27T00:12:03.518Z,97.00
2018-02-27T00:13:56.485Z,97.10
2018-02-27T00:14:56.534Z,97.00
2018-02-27T00:16:49.520Z,97.00
2018-02-27T00:17:49.550Z,97.00
2018-02-27T00:19:42.517Z,96.63
2018-02-27T00:20:42.575Z,96.81
2018-02-27T00:22:35.561Z,97.10
2018-02-27T00:23:35.593Z,96.34
2018-02-27T00:25:28.579Z,96.63
2018-02-27T00:26:28.607Z,96.34
2018-02-27T00:28:21.574Z,96.53
2018-02-27T00:29:21.632Z,96.63
2018-02-27T00:31:14.621Z,96.44
2018-02-27T00:32:14.641Z,96.63
2018-02-27T00:34:07.611Z,97.19
2018-02-27T00:35:07.654Z,96.72
2018-02-27T00:37:00.645Z,96.72
2018-02-27T00:38:00.673Z,96.72
2018-02-27T00:39:53.638Z,96.81
2018-02-27T00:40:53.688Z,96.53
2018-02-27T00:42:46.680Z,96.63
2018-02-27T00:43:46.710Z,96.44
2018-02-27T00:45:39.696Z,96.53
2018-02-27T00:46:39.728Z,96.34
2018-02-27T00:48:32.706Z,96.25
2018-02-27T00:49:32.739Z,96.53
2018-02-27T00:51:25.723Z,97.10
2018-02-27T00:52:25.753Z,96.95
2018-02-27T00:54:18.719Z,97.33
2018-02-27T00:55:18.769Z,96.95
2018-02-27T00:57:11.756Z,96.72
2018-02-27T00:58:11.785Z,96.77
2018-02-27T01:00:04.752Z,97.05
2018-02-27T01:01:04.805Z,97.00
2018-02-27T01:02:57.794Z,97.95
2018-02-27T01:03:57.817Z,97.67
2018-02-27T01:05:50.807Z,97.38
2018-02-27T01:06:50.834Z,97.19
2018-02-27T01:08:43.800Z,97.14
2018-02-27T01:09:43.851Z,97.24
2018-02-27T01:11:36.834Z,96.77
2018-02-27T01:12:36.863Z,97.05
2018-02-27T01:14:29.828Z,96.77
2018-02-27T01:15:29.875Z,96.86
2018-02-27T01:17:23.372Z,97.05
2018-02-27T01:18:23.402Z,96.95
2018-02-27T01:20:16.362Z,97.80
2018-02-27T01:21:16.414Z,97.52
2018-02-27T01:23:09.400Z,97.52
2018-02-27T01:24:09.428Z,98.09
2018-02-27T01:26:02.414Z,97.90
2018-02-27T01:27:02.445Z,97.52
2018-02-27T01:28:55.423Z,98.09
2018-02-27T01:29:55.460Z,98.09
2018-02-27T01:31:48.442Z,97.24
2018-02-27T01:32:48.473Z,97.24
2018-02-27T01:34:41.437Z,97.61
2018-02-27T01:35:41.486Z,97.80
2018-02-27T01:37:34.483Z,97.80
2018-02-27T01:38:34.502Z,97.33
2018-02-27T01:40:27.469Z,97.61
2018-02-27T01:41:27.521Z,97.52
2018-02-27T01:43:20.511Z,97.61
2018-02-27T01:44:20.537Z,97.52
2018-02-27T01:46:13.527Z,97.80
2018-02-27T01:47:13.552Z,97.80
2018-02-27T01:49:06.518Z,97.43
2018-02-27T01:50:06.567Z,97.80
2018-02-27T01:51:59.552Z,97.14
2018-02-27T01:52:59.588Z,97.61
2018-02-27T01:54:52.551Z,97.52
2018-02-27T01:55:52.598Z,97.61
2018-02-27T01:57:45.589Z,97.14
2018-02-27T01:58:45.612Z,97.80
2018-02-27T02:00:38.585Z,97.61
2018-02-27T02:01:38.639Z,97.71
2018-02-27T02:03:31.619Z,97.05
2018-02-27T02:04:31.651Z,97.14
2018-02-27T02:06:24.634Z,97.05
2018-02-27T02:07:24.689Z,97.05
2018-02-27T02:09:17.630Z,97.52
2018-02-27T02:10:17.684Z,97.61
2018-02-27T02:12:10.663Z,97.33
2018-02-27T02:13:10.696Z,97.99
2018-02-27T02:15:03.661Z,97.80
2018-02-27T02:16:03.708Z,97.61
2018-02-27T02:17:57.206Z,97.90
2018-02-27T02:18:57.230Z,97.99
2018-02-27T02:20:50.208Z,97.80
2018-02-27T02:21:50.252Z,97.71
2018-02-27T02:23:43.240Z,97.80
2018-02-27T02:24:43.269Z,98.09
2018-02-27T02:26:36.282Z,97.52
2018-02-27T02:27:36.316Z,97.43
2018-02-27T02:29:29.279Z,97.43
2018-02-27T02:30:29.324Z,97.43
2018-02-27T02:32:22.314Z,97.52
2018-02-27T02:33:22.342Z,97.71
2018-02-27T02:35:15.323Z,97.43
2018-02-27T02:36:15.369Z,97.52
2018-02-27T02:38:08.389Z,97.90
2018-02-27T02:39:08.375Z,97.71
2018-02-27T02:41:01.339Z,97.71
2018-02-27T02:42:01.390Z,97.61
2018-02-27T02:43:54.375Z,97.80
2018-02-27T02:44:54.403Z,97.80
2018-02-27T02:46:47.428Z,97.80
2018-02-27T02:47:47.456Z,97.80
2018-02-27T02:49:40.421Z,98.28
2018-02-27T02:50:40.472Z,97.05
2018-02-27T02:52:33.458Z,97.33
2018-02-27T02:53:33.487Z,97.14
2018-02-27T02:55:26.454Z,97.24
2018-02-27T02:56:26.502Z,96.86
2018-02-27T02:58:19.486Z,97.52
2018-02-27T02:59:19.515Z,97.33
2018-02-27T03:01:12.480Z,97.05
2018-02-27T03:02:12.528Z,96.86
2018-02-27T03:04:05.529Z,97.05
2018-02-27T03:05:05.557Z,97.14
2018-02-27T03:06:58.543Z,97.14
2018-02-27T03:07:58.574Z,97.24
2018-02-27T03:09:51.538Z,97.14
2018-02-27T03:10:51.587Z,97.05
2018-02-27T03:12:44.574Z,97.14
2018-02-27T03:13:44.603Z,96.77
2018-02-27T03:15:37.572Z,96.77
2018-02-27T03:16:37.620Z,97.14
2018-02-27T03:18:30.607Z,96.39
2018-02-27T03:19:30.635Z,96.48
2018-02-27T03:21:23.600Z,96.48
2018-02-27T03:22:23.649Z,96.58
2018-02-27T03:24:16.634Z,95.83
2018-02-27T03:25:16.662Z,96.01
2018-02-27T03:27:09.648Z,96.01
2018-02-27T03:28:09.676Z,95.92
2018-02-27T03:30:02.676Z,95.83
2018-02-27T03:31:02.692Z,95.26
2018-02-27T03:32:55.675Z,95.83
2018-02-27T03:33:55.704Z,95.45
2018-02-27T03:35:48.668Z,95.26
2018-02-27T03:36:48.720Z,95.45
2018-02-27T03:38:41.713Z,95.64
2018-02-27T03:39:41.732Z,95.36
2018-02-27T03:41:34.697Z,95.54
2018-02-27T03:42:34.746Z,95.73
2018-02-27T03:44:27.737Z,95.54
2018-02-27T03:45:27.763Z,95.54
2018-02-27T03:47:20.748Z,95.07
2018-02-27T03:48:20.777Z,94.88
2018-02-27T03:50:13.754Z,95.26
2018-02-27T03:51:13.796Z,94.98
2018-02-27T03:53:06.781Z,95.17
2018-02-27T03:54:06.813Z,94.88
2018-02-27T03:55:59.789Z,94.98
2018-02-27T03:56:59.823Z,94.88
2018-02-27T03:58:52.807Z,95.36
2018-02-27T03:59:52.838Z,95.64
2018-02-27T04:01:45.804Z,94.98
2018-02-27T04:02:45.852Z,94.98
2018-02-27T04:04:38.840Z,94.88
2018-02-27T04:05:38.869Z,94.69
2018-02-27T04:07:31.852Z,94.51
2018-02-27T04:08:31.881Z,94.60
2018-02-27T04:10:24.848Z,94.69
2018-02-27T04:11:24.896Z,94.98
2018-02-27T04:13:17.882Z,94.69
2018-02-27T04:14:17.915Z,94.69
2018-02-27T04:16:10.876Z,94.65
2018-02-27T04:17:10.924Z,94.65
2018-02-27T04:19:03.913Z,94.60
2018-02-27T04:20:03.940Z,94.46
2018-02-27T04:21:56.905Z,94.41
2018-02-27T04:22:56.957Z,94.69
2018-02-27T04:24:49.942Z,94.74
2018-02-27T04:25:49.975Z,94.74
2018-02-27T04:27:42.958Z,94.65
2018-02-27T04:28:43.003Z,94.55
2018-02-27T04:30:35.952Z,94.65
2018-02-27T04:31:36.002Z,94.27
2018-02-27T04:33:28.989Z,94.08
2018-02-27T04:34:29.029Z,94.08
2018-02-27T04:36:21.982Z,94.08
2018-02-27T04:37:22.030Z,93.42
2018-02-27T04:39:15.036Z,93.42
2018-02-27T04:40:15.045Z,93.32
2018-02-27T04:42:08.009Z,93.51
2018-02-27T04:43:08.058Z,93.32
2018-02-27T04:45:01.047Z,93.04
2018-02-27T04:46:01.072Z,93.13
2018-02-27T04:47:54.060Z,93.13
2018-02-27T04:48:54.088Z,93.42
2018-02-27T04:50:47.072Z,93.42
2018-02-27T04:51:47.108Z,93.23
2018-02-27T04:53:40.090Z,93.04
2018-02-27T04:54:40.117Z,93.13
2018-02-27T04:56:33.097Z,93.04
2018-02-27T04:57:33.147Z,92.85
2018-02-27T04:59:26.137Z,92.85
2018-02-27T05:00:26.168Z,92.47
2018-02-27T05:02:19.132Z,93.13
2018-02-27T05:03:19.180Z,93.04
2018-02-27T05:05:12.162Z,93.04
2018-02-27T05:06:12.191Z,93.23
2018-02-27T05:08:05.176Z,93.04
2018-02-27T05:09:05.204Z,93.04
2018-02-27T05:10:58.169Z,93.32
2018-02-27T05:11:58.223Z,93.23
2018-02-27T05:13:51.206Z,93.04
2018-02-27T05:14:51.236Z,93.23
2018-02-27T05:16:44.210Z,93.51
2018-02-27T05:17:44.247Z,92.95
2018-02-27T05:19:37.231Z,93.23
2018-02-27T05:20:37.446Z,93.13
2018-02-27T05:22:30.412Z,93.04
2018-02-27T05:23:30.485Z,93.04
2018-02-27T05:25:23.448Z,93.13
2018-02-27T05:26:23.476Z,93.04
2018-02-27T05:28:16.461Z,92.95
2018-02-27T05:29:16.486Z,92.76
2018-02-27T05:31:09.451Z,92.47
2018-02-27T05:32:09.503Z,92.66
2018-02-27T05:34:02.499Z,92.29
2018-02-27T05:35:02.516Z,92.57
2018-02-27T05:36:55.483Z,92.66
2018-02-27T05:37:55.526Z,92.10
2018-02-27T05:39:48.519Z,92.00
2018-02-27T05:40:48.540Z,92.47
2018-02-27T05:42:41.505Z,92.38
2018-02-27T05:43:41.561Z,91.82
2018-02-27T05:45:34.537Z,92.10
2018-02-27T05:46:34.567Z,92.29
2018-02-27T05:48:27.565Z,92.19
2018-02-27T05:49:27.594Z,91.72
2018-02-27T05:51:21.059Z,91.72
2018-02-27T05:52:21.113Z,92.19
2018-02-27T05:54:14.129Z,92.47
2018-02-27T05:55:14.122Z,92.19
2018-02-27T05:57:07.086Z,92.19
2018-02-27T05:58:07.134Z,92.76
2018-02-27T06:00:00.123Z,92.57
2018-02-27T06:01:00.154Z,92.66
2018-02-27T06:02:53.127Z,92.85
2018-02-27T06:03:53.166Z,92.76
2018-02-27T06:05:46.151Z,92.85
2018-02-27T06:06:46.181Z,92.66
2018-02-27T06:08:39.194Z,93.32
2018-02-27T06:09:39.191Z,93.04
2018-02-27T06:11:32.154Z,93.51
2018-02-27T06:12:32.204Z,93.51
2018-02-27T06:14:25.187Z,92.95
2018-02-27T06:15:25.217Z,93.32
2018-02-27T06:17:18.716Z,92.95
2018-02-27T06:18:18.737Z,93.23
2018-02-27T06:20:11.745Z,93.32
2018-02-27T06:21:11.798Z,93.13
2018-02-27T06:23:04.800Z,93.32
2018-02-27T06:24:04.763Z,93.23
2018-02-27T06:25:57.793Z,93.51
2018-02-27T06:26:57.785Z,93.51
2018-02-27T06:28:50.770Z,93.51
2018-02-27T06:29:50.800Z,93.61
2018-02-27T06:31:43.763Z,93.23
2018-02-27T06:32:43.850Z,93.51
2018-02-27T06:34:36.855Z,93.70
2018-02-27T06:35:36.848Z,93.51
2018-02-27T06:37:29.820Z,93.32
2018-02-27T06:38:29.859Z,93.70
2018-02-27T06:40:22.888Z,93.51
2018-02-27T06:41:22.872Z,93.51
2018-02-27T06:43:15.878Z,93.42
2018-02-27T06:44:15.883Z,93.70
2018-02-27T06:46:08.888Z,93.61
2018-02-27T06:47:08.899Z,93.61
2018-02-27T06:49:01.924Z,93.98
2018-02-27T06:50:01.919Z,93.70
2018-02-27T06:51:54.898Z,93.98
2018-02-27T06:52:54.953Z,94.08
2018-02-27T06:54:47.921Z,94.88
2018-02-27T06:55:47.949Z,94.22
2018-02-27T06:57:40.913Z,93.94
2018-02-27T06:58:40.963Z,94.03
2018-02-27T07:00:33.949Z,94.32
2018-02-27T07:01:33.978Z,94.41
2018-02-27T07:03:26.969Z,94.22
2018-02-27T07:04:27.004Z,94.22
2018-02-27T07:06:20.027Z,94.51
2018-02-27T07:07:20.050Z,94.32
2018-02-27T07:09:13.027Z,94.22
2018-02-27T07:10:13.028Z,93.94
2018-02-27T07:12:06.002Z,94.79
2018-02-27T07:13:06.044Z,95.26
2018-02-27T07:14:59.033Z,94.69
2018-02-27T07:15:59.061Z,94.69
2018-02-27T07:17:52.031Z,94.79
2018-02-27T07:18:52.084Z,94.88
2018-02-27T07:20:45.067Z,95.17
2018-02-27T07:21:45.096Z,94.98
2018-02-27T07:23:38.068Z,95.26
2018-02-27T07:24:38.145Z,95.83
2018-02-27T07:26:31.095Z,95.26
2018-02-27T07:27:31.126Z,95.73
2018-02-27T07:29:24.111Z,95.54
2018-02-27T07:30:24.141Z,96.20
2018-02-27T07:32:17.691Z,96.48
2018-02-27T07:33:17.684Z,95.64
2018-02-27T07:35:10.646Z,95.45
2018-02-27T07:36:10.675Z,95.64
2018-02-27T07:38:03.640Z,95.92
2018-02-27T07:39:03.690Z,95.45
2018-02-27T07:40:56.678Z,96.01
2018-02-27T07:41:56.715Z,95.45
2018-02-27T07:43:49.728Z,96.11
2018-02-27T07:44:49.732Z,96.20
2018-02-27T07:46:42.761Z,95.92
2018-02-27T07:47:42.759Z,96.20
2018-02-27T07:49:35.726Z,96.01
2018-02-27T07:50:35.758Z,95.83
2018-02-27T07:52:28.719Z,95.26
2018-02-27T07:53:28.765Z,95.45
2018-02-27T07:55:21.754Z,96.01
2018-02-27T07:56:22.768Z,95.83
2018-02-27T07:58:14.747Z,96.95
2018-02-27T07:59:14.800Z,97.00
2018-02-27T08:01:07.799Z,96.81
2018-02-27T08:02:07.812Z,96.81
2018-02-27T08:04:00.841Z,96.81
2018-02-27T08:05:00.835Z,96.63
2018-02-27T08:06:53.822Z,97.29
2018-02-27T08:07:53.851Z,99.99
2018-02-27T08:09:46.845Z,99.33
2018-02-27T08:10:46.904Z,94.41
2018-02-27T08:12:39.836Z,87.84
2018-02-27T08:13:39.884Z,83.49
2018-02-27T08:15:32.882Z,76.50
2018-02-27T08:16:32.911Z,78.86
2018-02-27T08:18:25.882Z,87.04
2018-02-27T08:19:25.932Z,89.45
2018-02-27T08:21:18.931Z,92.05
2018-02-27T08:22:18.952Z,93.56
2018-02-27T08:24:11.972Z,94.79
2018-02-27T08:25:11.973Z,94.98
2018-02-27T08:27:04.958Z,95.07
2018-02-27T08:28:04.995Z,95.36
2018-02-27T08:29:58.014Z,95.83
2018-02-27T08:30:58.007Z,95.54
2018-02-27T08:32:51.537Z,95.17
2018-02-27T08:33:51.539Z,94.89
2018-02-27T08:35:44.567Z,95.92
2018-02-27T08:36:44.578Z,97.10
2018-02-27T08:38:37.532Z,84.06
2018-02-27T08:39:37.570Z,75.49
2018-02-27T08:41:30.563Z,66.57
2018-02-27T08:42:30.595Z,63.01
2018-02-27T08:44:23.564Z,59.59
2018-02-27T08:45:23.622Z,57.70
2018-02-27T08:47:16.663Z,57.44
2018-02-27T08:48:16.647Z,56.21
2018-02-27T08:50:09.633Z,54.53
2018-02-27T08:51:09.665Z,52.92
2018-02-27T08:53:02.636Z,51.76
2018-02-27T08:54:02.688Z,52.16
2018-02-27T08:55:55.690Z,51.68
2018-02-27T08:56:55.737Z,51.82
2018-02-27T08:58:48.716Z,53.69
2018-02-27T08:59:48.771Z,54.90
2018-02-27T09:01:41.811Z,56.32
2018-02-27T09:02:41.788Z,57.73
2018-02-27T09:04:34.858Z,59.81
2018-02-27T09:05:34.813Z,60.38
2018-02-27T09:07:27.813Z,59.91
2018-02-27T09:08:27.866Z,58.68
2018-02-27T09:10:20.835Z,56.46
2018-02-27T09:11:20.870Z,54.79
2018-02-27T09:13:13.940Z,52.61
2018-02-27T09:14:13.900Z,52.61
2018-02-27T09:16:06.893Z,52.08
2018-02-27T09:17:06.937Z,53.59
2018-02-27T09:18:59.898Z,57.57
2018-02-27T09:19:59.951Z,57.07
2018-02-27T09:21:52.989Z,59.60
2018-02-27T09:22:52.977Z,59.50
2018-02-27T09:24:45.962Z,59.41
2018-02-27T09:25:46.004Z,61.18
2018-02-27T09:27:39.004Z,63.73
2018-02-27T09:28:39.046Z,64.77
2018-02-27T09:30:32.069Z,66.66
2018-02-27T09:31:32.071Z,65.91
2018-02-27T09:33:25.049Z,67.95
2018-02-27T09:34:25.099Z,70.78
2018-02-27T09:36:18.124Z,75.76
2018-02-27T09:37:18.122Z,74.62
2018-02-27T09:39:11.109Z,75.98
2018-02-27T09:40:11.148Z,78.02
2018-02-27T09:42:04.127Z,74.62
2018-02-27T09:43:04.160Z,74.71
2018-02-27T09:44:57.138Z,76.32
2018-02-27T09:45:57.181Z,77.17
2018-02-27T09:47:50.179Z,75.42
2018-02-27T09:48:50.211Z,74.62
2018-02-27T09:50:43.195Z,78.12
2018-02-27T09:51:43.225Z,77.93
2018-02-27T09:53:36.262Z,78.78
2018-02-27T09:54:36.259Z,78.50
2018-02-27T09:56:29.264Z,78.31
2018-02-27T09:57:29.288Z,78.59
2018-02-27T09:59:22.257Z,78.31
2018-02-27T10:00:22.307Z,78.78
2018-02-27T10:02:15.301Z,79.63
2018-02-27T10:03:15.330Z,80.19
2018-02-27T10:05:08.305Z,78.50
2018-02-27T10:06:08.358Z,77.59
2018-02-27T10:08:01.414Z,76.55
2018-02-27T10:09:01.373Z,75.42
2018-02-27T10:10:54.364Z,74.38
2018-02-27T10:11:54.398Z,75.13
2018-02-27T10:13:47.365Z,74.38
2018-02-27T10:14:47.426Z,74.28
2018-02-27T10:16:40.406Z,76.70
2018-02-27T10:17:40.440Z,79.06
2018-02-27T10:19:33.417Z,79.82
2018-02-27T10:20:33.466Z,80.95
2018-02-27T10:22:26.490Z,81.80
2018-02-27T10:23:26.511Z,81.42
2018-02-27T10:25:19.470Z,81.71
2018-02-27T10:26:19.523Z,80.85
2018-02-27T10:28:12.536Z,81.99
2018-02-27T10:29:12.545Z,82.75
2018-02-27T10:31:05.540Z,83.97
2018-02-27T10:32:05.577Z,85.39
2018-02-27T10:33:58.543Z,86.05
2018-02-27T10:34:58.586Z,86.15
2018-02-27T10:36:51.578Z,84.45
2018-02-27T10:37:51.609Z,83.88
2018-02-27T10:39:44.582Z,82.12
2018-02-27T10:40:44.640Z,82.41
2018-02-27T10:42:37.626Z,81.46
2018-02-27T10:43:37.657Z,80.99
2018-02-27T10:45:30.665Z,82.56
2018-02-27T10:46:30.676Z,83.36
2018-02-27T10:48:23.709Z,83.26
2018-02-27T10:49:23.710Z,82.12
2018-02-27T10:51:16.786Z,80.24
2018-02-27T10:52:16.752Z,79.38
2018-02-27T10:54:09.759Z,79.10
2018-02-27T10:55:09.772Z,79.19
2018-02-27T10:57:02.802Z,79.00
2018-02-27T10:58:02.797Z,80.24
2018-02-27T10:59:55.768Z,81.56
2018-02-27T11:00:55.817Z,81.93
2018-02-27T11:02:48.892Z,83.45
2018-02-27T11:03:48.840Z,83.92
2018-02-27T11:05:41.860Z,85.30
2018-02-27T11:06:41.871Z,85.86
2018-02-27T11:08:34.861Z,85.49
2018-02-27T11:09:34.899Z,85.86
2018-02-27T11:11:27.897Z,86.47
2018-02-27T11:12:27.916Z,85.62
2018-02-27T11:14:20.894Z,86.00
2018-02-27T11:15:20.953Z,85.05
2018-02-27T11:17:13.953Z,84.68
2018-02-27T11:18:13.968Z,83.17
2018-02-27T11:20:06.942Z,83.07
2018-02-27T11:21:06.991Z,83.54
2018-02-27T11:23:00.168Z,84.39
2018-02-27T11:24:00.029Z,83.17
2018-02-27T11:25:52.985Z,83.07
2018-02-27T11:26:53.084Z,83.17
2018-02-27T11:28:46.036Z,83.54
2018-02-27T11:29:46.066Z,83.92
2018-02-27T11:31:39.105Z,82.79
2018-02-27T11:32:39.084Z,82.69
2018-02-27T11:34:32.059Z,84.86
2018-02-27T11:35:32.107Z,83.92
2018-02-27T11:37:25.140Z,82.88
2018-02-27T11:38:25.138Z,83.36
2018-02-27T11:40:18.103Z,81.74
2018-02-27T11:41:18.168Z,82.31
2018-02-27T11:43:11.224Z,81.65
2018-02-27T11:44:11.174Z,81.09
2018-02-27T11:46:04.282Z,83.26
2018-02-27T11:47:04.200Z,84.49
2018-02-27T11:48:57.212Z,82.98
2018-02-27T11:49:57.218Z,83.45
2018-02-27T11:51:50.306Z,80.90
2018-02-27T11:52:50.265Z,81.18
2018-02-27T11:54:43.232Z,84.45
2018-02-27T11:55:43.273Z,86.62
2018-02-27T11:57:36.255Z,86.29
2018-02-27T11:58:36.292Z,87.32
2018-02-27T12:00:29.279Z,87.51
2018-02-27T12:01:29.317Z,86.66
2018-02-27T12:03:22.329Z,86.10
2018-02-27T12:04:22.334Z,86.47
2018-02-27T12:06:15.303Z,85.72
2018-02-27T12:07:15.362Z,86.29
2018-02-27T12:09:08.503Z,85.72
2018-02-27T12:10:08.412Z,84.96
2018-02-27T12:12:01.372Z,83.64
2018-02-27T12:13:01.404Z,84.11
2018-02-27T12:14:54.390Z,83.26
2018-02-27T12:15:54.422Z,82.79
2018-02-27T12:17:47.425Z,83.17
2018-02-27T12:18:47.471Z,80.99
2018-02-27T12:20:40.485Z,82.60
2018-02-27T12:21:40.474Z,82.12
2018-02-27T12:23:33.472Z,81.51
2018-02-27T12:24:33.523Z,78.10
2018-02-27T12:26:26.510Z,75.79
2018-02-27T12:27:26.560Z,77.78
2018-02-27T12:29:19.593Z,76.83
2018-02-27T12:30:19.566Z,76.74
2018-02-27T12:32:13.062Z,75.98
2018-02-27T12:33:13.112Z,75.42
2018-02-27T12:35:06.129Z,77.59
2018-02-27T12:36:06.107Z,77.87
2018-02-27T12:37:59.173Z,76.07
2018-02-27T12:38:59.156Z,75.32
2018-02-27T12:40:52.132Z,74.76
2018-02-27T12:41:52.216Z,72.99
2018-02-27T12:43:45.287Z,72.24
2018-02-27T12:44:45.196Z,72.58
2018-02-27T12:46:38.197Z,74.57
2018-02-27T12:47:38.208Z,73.81
2018-02-27T12:49:31.293Z,73.09
2018-02-27T12:50:31.213Z,71.48
2018-02-27T12:52:24.242Z,72.99
2018-02-27T12:53:24.284Z,70.44
2018-02-27T12:55:17.218Z,70.06
2018-02-27T12:56:17.287Z,69.97
2018-02-27T12:58:10.254Z,69.68
2018-02-27T12:59:10.296Z,69.59
2018-02-27T13:01:03.256Z,67.41
2018-02-27T13:02:03.329Z,65.15
2018-02-27T13:03:56.299Z,64.11
2018-02-27T13:04:56.369Z,65.24
2018-02-27T13:06:49.302Z,67.51
2018-02-27T13:07:49.471Z,67.89
2018-02-27T13:09:42.468Z,67.03
2018-02-27T13:10:42.538Z,66.85
2018-02-27T13:12:37.184Z,65.72
2018-02-27T13:13:37.055Z,65.62
2018-02-27T13:15:29.936Z,64.39
2018-02-27T13:16:30.078Z,64.11
2018-02-27T13:18:23.139Z,64.29
2018-02-27T13:19:23.440Z,65.43
2018-02-27T13:21:16.117Z,65.24
2018-02-27T13:22:16.204Z,64.92
2018-02-27T13:24:09.223Z,64.29
2018-02-27T13:25:09.260Z,65.24
2018-02-27T13:27:02.292Z,65.05
2018-02-27T13:28:02.502Z,65.24
2018-02-27T13:29:55.282Z,65.24
2018-02-27T13:30:55.301Z,64.77
2018-02-27T13:32:48.217Z,64.96
2018-02-27T13:33:48.336Z,65.05
2018-02-27T13:35:41.231Z,64.96
2018-02-27T13:36:41.261Z,64.11
2018-02-27T13:38:34.464Z,63.45
2018-02-27T13:39:34.278Z,63.54
2018-02-27T13:41:27.216Z,63.82
2018-02-27T13:42:27.193Z,62.69
2018-02-27T13:44:20.220Z,62.12
2018-02-27T13:45:20.214Z,61.93
2018-02-27T13:47:13.344Z,62.12
2018-02-27T13:48:13.267Z,62.06
2018-02-27T13:50:06.393Z,61.87
2018-02-27T13:51:06.281Z,62.15
2018-02-27T13:52:59.260Z,61.68
2018-02-27T13:53:59.508Z,62.15
2018-02-27T13:55:52.502Z,61.87
2018-02-27T13:56:52.326Z,61.83
2018-02-27T13:58:45.371Z,62.50
2018-02-27T13:59:45.381Z,62.59
2018-02-27T14:01:38.332Z,62.59
2018-02-27T14:02:38.476Z,62.97
2018-02-27T14:04:31.490Z,63.26
2018-02-27T14:05:31.383Z,63.16
2018-02-27T14:07:24.405Z,62.40
2018-02-27T14:08:24.410Z,62.78
2018-02-27T14:10:17.447Z,62.69
2018-02-27T14:11:17.450Z,62.40
2018-02-27T14:13:10.422Z,62.31
2018-02-27T14:14:10.453Z,62.12
2018-02-27T14:16:03.442Z,62.18
2018-02-27T14:17:03.512Z,62.37
2018-02-27T14:18:56.504Z,63.23
2018-02-27T14:19:56.500Z,63.51
2018-02-27T14:21:49.471Z,64.07
2018-02-27T14:22:49.527Z,64.73
2018-02-27T14:24:42.632Z,64.26
2018-02-27T14:25:42.547Z,63.89
2018-02-27T14:27:35.531Z,64.07
2018-02-27T14:28:35.589Z,63.70
2018-02-27T14:30:28.595Z,63.60
2018-02-27T14:31:28.612Z,63.42
2018-02-27T14:33:21.597Z,63.23
2018-02-27T14:34:21.630Z,63.04
2018-02-27T14:36:14.627Z,62.28
2018-02-27T14:37:14.651Z,62.37
2018-02-27T14:39:07.651Z,62.18
2018-02-27T14:40:07.676Z,62.37
2018-02-27T14:42:00.683Z,62.28
2018-02-27T14:43:00.699Z,62.18
2018-02-27T14:44:53.705Z,61.24
2018-02-27T14:45:53.724Z,60.30
2018-02-27T14:47:46.691Z,60.30
2018-02-27T14:48:46.794Z,59.66
2018-02-27T14:50:39.739Z,59.95
2018-02-27T14:51:39.814Z,60.04
2018-02-27T14:53:32.754Z,60.04
2018-02-27T14:54:32.892Z,60.14
2018-02-27T14:56:25.755Z,61.18
2018-02-27T14:57:25.807Z,61.74
2018-02-27T14:59:18.804Z,62.50
2018-02-27T15:00:18.834Z,63.45
2018-02-27T15:02:11.844Z,65.81
2018-02-27T15:03:11.856Z,66.38
2018-02-27T15:05:04.990Z,67.41
2018-02-27T15:06:04.880Z,67.79
2018-02-27T15:07:58.102Z,68.08
2018-02-27T15:08:57.912Z,68.84
2018-02-27T15:10:51.011Z,67.89
2018-02-27T15:11:50.934Z,67.79
2018-02-27T15:13:43.954Z,68.74
2018-02-27T15:14:43.979Z,68.36
2018-02-27T15:16:36.941Z,68.84
2018-02-27T15:17:36.988Z,69.59
2018-02-27T15:19:29.981Z,69.46
2018-02-27T15:20:30.012Z,68.55
2018-02-27T15:22:23.177Z,68.36
2018-02-27T15:23:23.033Z,68.33
2018-02-27T15:25:16.198Z,67.76
2018-02-27T15:26:16.064Z,68.71
2018-02-27T15:28:09.199Z,69.37
2018-02-27T15:29:09.083Z,68.80
2018-02-27T15:31:02.073Z,68.33
2018-02-27T15:32:02.106Z,69.09
2018-02-27T15:33:55.309Z,68.71
2018-02-27T15:34:55.130Z,68.33
2018-02-27T15:36:48.106Z,68.80
2018-02-27T15:37:48.162Z,68.71
2018-02-27T15:39:41.138Z,68.99
2018-02-27T15:40:41.171Z,69.18
2018-02-27T15:42:34.159Z,68.04
2018-02-27T15:43:34.210Z,67.47
2018-02-27T15:45:27.200Z,67.47
2018-02-27T15:46:27.253Z,68.04
2018-02-27T15:48:20.277Z,67.00
2018-02-27T15:49:20.278Z,67.00
2018-02-27T15:51:13.303Z,66.44
2018-02-27T15:52:13.276Z,66.82
2018-02-27T15:54:06.287Z,66.44
2018-02-27T15:55:06.296Z,66.16
2018-02-27T15:56:59.290Z,66.91
2018-02-27T15:57:59.383Z,67.10
2018-02-27T15:59:52.458Z,67.38
2018-02-27T16:00:52.376Z,67.57
2018-02-27T16:02:45.392Z,67.47
2018-02-27T16:03:45.386Z,67.19
2018-02-27T16:05:38.417Z,67.19
2018-02-27T16:06:38.412Z,66.91
2018-02-27T16:08:31.410Z,65.78
2018-02-27T16:09:31.469Z,65.02
2018-02-27T16:11:24.424Z,64.26
2018-02-27T16:12:24.504Z,64.26
2018-02-27T16:14:17.488Z,64.36
2018-02-27T16:15:17.536Z,64.26
2018-02-27T16:17:10.475Z,64.07
2018-02-27T16:18:10.661Z,63.79
2018-02-27T16:20:03.532Z,63.32
2018-02-27T16:21:03.550Z,63.70
2018-02-27T16:22:56.519Z,63.89
2018-02-27T16:23:56.573Z,64.64
2018-02-27T16:25:49.861Z,65.97
2018-02-27T16:26:49.601Z,67.47
2018-02-27T16:28:42.714Z,69.37
2018-02-27T16:29:42.635Z,70.12
2018-02-27T16:31:35.869Z,70.97
2018-02-27T16:32:36.053Z,71.54
2018-02-27T16:34:28.963Z,72.20
2018-02-27T16:35:29.005Z,72.49
2018-02-27T16:37:22.710Z,73.62
2018-02-27T16:38:21.821Z,75.42
2018-02-27T16:40:14.787Z,78.72
2018-02-27T16:41:14.861Z,81.18
2018-02-27T16:43:07.783Z,84.68
2018-02-27T16:44:07.813Z,86.62
2018-02-27T16:46:00.842Z,89.45
2018-02-27T16:47:00.833Z,90.59
2018-02-27T16:48:53.823Z,92.10
2018-02-27T16:49:53.855Z,92.19
2018-02-27T16:51:46.922Z,92.76
2018-02-27T16:52:46.894Z,93.51
2018-02-27T16:54:39.884Z,93.32
2018-02-27T16:55:40.922Z,93.13
2018-02-27T16:57:33.146Z,94.08
2018-02-27T16:58:33.344Z,93.70
2018-02-27T17:00:26.129Z,93.70
2018-02-27T17:01:26.064Z,93.99
2018-02-27T17:03:19.060Z,93.70
2018-02-27T17:04:19.312Z,93.89
2018-02-27T17:06:12.317Z,94.18
2018-02-27T17:07:12.059Z,94.27
2018-02-27T17:09:05.058Z,94.46
2018-02-27T17:10:05.070Z,94.56
2018-02-27T17:11:58.047Z,94.18
2018-02-27T17:12:58.171Z,94.27
2018-02-27T17:14:51.319Z,94.46
2018-02-27T17:15:51.180Z,94.27
2018-02-27T17:17:44.264Z,94.74
2018-02-27T17:18:44.500Z,93.80
2018-02-27T17:20:37.107Z,93.51
2018-02-27T17:21:37.144Z,93.42
2018-02-27T17:23:30.136Z,93.32
2018-02-27T17:24:30.195Z,93.13
2018-02-27T17:26:23.202Z,93.13
2018-02-27T17:27:23.254Z,93.13
2018-02-27T17:29:16.193Z,93.04
2018-02-27T17:30:16.277Z,92.71
2018-02-27T17:32:09.369Z,92.99
2018-02-27T17:33:09.337Z,92.71
2018-02-27T17:35:02.992Z,93.18
2018-02-27T17:36:04.344Z,92.90
2018-02-27T17:37:55.394Z,93.09
2018-02-27T17:38:55.718Z,93.28
2018-02-27T17:40:48.852Z,93.47
2018-02-27T17:41:48.678Z,93.18
2018-02-27T17:43:41.463Z,92.99
2018-02-27T17:44:41.510Z,92.90
2018-02-27T17:46:34.495Z,93.28
2018-02-27T17:47:34.506Z,93.28
2018-02-27T17:49:27.492Z,93.09
2018-02-27T17:50:27.563Z,93.18
2018-02-27T17:52:20.535Z,93.09
2018-02-27T17:53:20.557Z,92.99
2018-02-27T17:55:13.545Z,92.90
2018-02-27T17:56:13.576Z,93.09
2018-02-27T17:58:06.563Z,93.09
2018-02-27T17:59:06.600Z,93.47
2018-02-27T18:00:59.605Z,93.28
2018-02-27T18:01:59.626Z,93.75
2018-02-27T18:03:52.643Z,93.66
2018-02-27T18:04:52.694Z,93.66
2018-02-27T18:06:45.729Z,93.47
2018-02-27T18:07:45.708Z,93.47
2018-02-27T18:09:38.699Z,94.13
2018-02-27T18:10:38.716Z,93.84
2018-02-27T18:12:31.765Z,94.32
2018-02-27T18:13:31.743Z,94.32
2018-02-27T18:15:24.701Z,94.51
2018-02-27T18:16:24.729Z,94.13
2018-02-27T18:18:17.704Z,94.13
2018-02-27T18:19:17.751Z,93.84
2018-02-27T18:21:10.740Z,93.56
2018-02-27T18:22:10.841Z,94.13
2018-02-27T18:24:03.751Z,94.32
2018-02-27T18:25:03.794Z,93.56
2018-02-27T18:26:56.850Z,93.66
2018-02-27T18:27:56.815Z,93.56
2018-02-27T18:29:49.780Z,93.94
2018-02-27T18:30:49.833Z,93.66
2018-02-27T18:32:42.821Z,93.47
2018-02-27T18:33:42.852Z,93.84